createdAt,value
2022-10-28T00:00:01.850Z,39.17
2022-10-28T00:01:01.855Z,44.72
2022-10-28T00:02:02.038Z,42.79
2022-10-28T00:03:01.922Z,46.07
2022-10-28T00:04:01.848Z,40.56
2022-10-28T00:05:01.838Z,39.04
2022-10-28T00:06:01.803Z,42.33
2022-10-28T00:07:01.806Z,42.83
2022-10-28T00:08:01.793Z,44.45
2022-10-28T00:09:01.824Z,47.47
2022-10-28T00:10:01.772Z,46.33
2022-10-28T00:11:01.767Z,48.87
2022-10-28T00:12:01.759Z,44.07
2022-10-28T00:13:01.751Z,49.70
2022-10-28T00:14:01.765Z,41.21
2022-10-28T00:15:01.733Z,42.99
2022-10-28T00:16:01.724Z,43.19
2022-10-28T00:17:01.748Z,41.85
2022-10-28T00:18:02.725Z,39.88
2022-10-28T00:19:01.730Z,45.57
2022-10-28T00:20:01.708Z,43.49
2022-10-28T00:21:01.695Z,47.61
2022-10-28T00:22:01.685Z,44.35
2022-10-28T00:23:01.677Z,43.79
2022-10-28T00:24:01.704Z,40.95
2022-10-28T00:25:01.662Z,41.92
2022-10-28T00:26:01.650Z,48.90
2022-10-28T00:27:01.647Z,43.29
2022-10-28T00:28:01.654Z,45.35
2022-10-28T00:29:01.668Z,49.53
2022-10-28T00:30:01.648Z,46.60
2022-10-28T00:31:01.615Z,45.07
2022-10-28T00:32:01.611Z,54.91
2022-10-28T00:33:01.598Z,45.12
2022-10-28T00:34:01.618Z,55.96
2022-10-28T00:35:01.579Z,50.27
2022-10-28T00:36:04.264Z,42.86
2022-10-28T00:37:01.571Z,59.40
2022-10-28T00:38:01.555Z,42.88
2022-10-28T00:39:01.583Z,39.38
2022-10-28T00:40:01.541Z,47.29
2022-10-28T00:41:01.533Z,54.58
2022-10-28T00:42:01.522Z,55.38
2022-10-28T00:43:01.513Z,55.85
2022-10-28T00:44:01.530Z,58.73
2022-10-28T00:45:01.528Z,53.82
2022-10-28T00:46:01.489Z,56.44
2022-10-28T00:47:01.495Z,60.04
2022-10-28T00:48:01.482Z,56.50
2022-10-28T00:49:01.498Z,50.48
2022-10-28T00:50:01.467Z,45.60
2022-10-28T00:51:01.458Z,42.46
2022-10-28T00:52:01.448Z,54.01
2022-10-28T00:53:01.445Z,50.68
2022-10-28T00:54:01.457Z,42.70
2022-10-28T00:55:01.426Z,46.78
2022-10-28T00:56:01.410Z,53.93
2022-10-28T00:57:01.403Z,46.88
2022-10-28T00:58:01.398Z,40.34
2022-10-28T00:59:01.423Z,43.56
2022-10-28T01:00:01.382Z,48.31
2022-10-28T01:01:01.384Z,46.88
2022-10-28T01:02:01.440Z,54.90
2022-10-28T01:03:01.357Z,42.45
2022-10-28T01:04:01.384Z,51.42
2022-10-28T01:05:01.347Z,47.57
2022-10-28T01:06:01.337Z,49.29
2022-10-28T01:07:01.329Z,45.41
2022-10-28T01:08:01.319Z,48.24
2022-10-28T01:09:01.317Z,41.59
2022-10-28T01:10:01.340Z,48.25
2022-10-28T01:11:01.294Z,58.13
2022-10-28T01:12:01.290Z,41.20
2022-10-28T01:13:01.281Z,42.68
2022-10-28T01:14:01.274Z,45.61
2022-10-28T01:15:01.294Z,42.17
2022-10-28T01:16:01.258Z,43.52
2022-10-28T01:17:01.251Z,42.11
2022-10-28T01:18:01.247Z,50.15
2022-10-28T01:19:01.236Z,49.94
2022-10-28T01:20:01.262Z,58.33
2022-10-28T01:21:01.222Z,48.09
2022-10-28T01:22:01.216Z,53.01
2022-10-28T01:23:01.203Z,41.49
2022-10-28T01:24:01.193Z,44.47
2022-10-28T01:25:01.212Z,39.05
2022-10-28T01:26:01.187Z,46.53
2022-10-28T01:27:01.168Z,42.64
2022-10-28T01:28:01.164Z,61.70
2022-10-28T01:29:01.157Z,52.28
2022-10-28T01:30:01.186Z,54.59
2022-10-28T01:31:01.148Z,43.93
2022-10-28T01:32:01.137Z,43.42
2022-10-28T01:33:01.126Z,42.46
2022-10-28T01:34:01.122Z,40.24
2022-10-28T01:35:01.133Z,53.27
2022-10-28T01:36:01.103Z,46.19
2022-10-28T01:37:01.102Z,50.73
2022-10-28T01:38:01.095Z,53.26
2022-10-28T01:39:01.070Z,53.77
2022-10-28T01:40:01.098Z,57.84
2022-10-28T01:41:33.908Z,42.12
2022-10-28T01:42:01.048Z,38.93
2022-10-28T01:43:02.051Z,39.67
2022-10-28T01:44:01.036Z,41.03
2022-10-28T01:45:01.066Z,58.31
2022-10-28T01:46:01.028Z,42.51
2022-10-28T01:47:01.013Z,56.59
2022-10-28T01:48:01.016Z,42.28
2022-10-28T01:49:01.014Z,45.13
2022-10-28T01:50:01.021Z,40.42
2022-10-28T01:51:00.988Z,47.39
2022-10-28T01:52:00.987Z,51.92
2022-10-28T01:53:00.977Z,52.80
2022-10-28T01:54:00.970Z,45.60
2022-10-28T01:55:00.988Z,44.27
2022-10-28T01:56:00.948Z,43.05
2022-10-28T01:57:00.939Z,52.78
2022-10-28T01:58:00.929Z,44.68
2022-10-28T01:59:00.948Z,48.50
2022-10-28T02:00:00.947Z,54.49
2022-10-28T02:01:00.962Z,52.66
2022-10-28T02:03:00.903Z,53.62
2022-10-28T02:04:00.900Z,50.30
2022-10-28T02:05:00.909Z,49.99
2022-10-28T02:06:00.874Z,48.71
2022-10-28T02:07:00.881Z,45.92
2022-10-28T02:08:00.854Z,51.09
2022-10-28T02:09:00.847Z,43.00
2022-10-28T02:10:00.875Z,48.24
2022-10-28T02:11:00.842Z,52.27
2022-10-28T02:12:00.824Z,44.20
2022-10-28T02:13:00.828Z,45.13
2022-10-28T02:14:00.808Z,43.66
2022-10-28T02:15:00.860Z,41.12
2022-10-28T02:16:00.823Z,48.46
2022-10-28T02:17:00.786Z,41.57
2022-10-28T02:18:00.794Z,49.32
2022-10-28T02:19:00.799Z,54.02
2022-10-28T02:20:00.768Z,47.03
2022-10-28T02:21:00.783Z,40.36
2022-10-28T02:22:00.751Z,51.09
2022-10-28T02:23:00.734Z,45.47
2022-10-28T02:24:00.735Z,44.18
2022-10-28T02:25:00.726Z,48.50
2022-10-28T02:26:00.745Z,46.15
2022-10-28T02:27:00.712Z,50.64
2022-10-28T02:28:00.747Z,55.65
2022-10-28T02:29:00.683Z,43.51
2022-10-28T02:30:00.684Z,49.19
2022-10-28T02:31:00.699Z,53.28
2022-10-28T02:32:00.657Z,51.40
2022-10-28T02:33:00.658Z,47.14
2022-10-28T02:34:00.659Z,47.20
2022-10-28T02:35:00.636Z,48.44
2022-10-28T02:36:00.655Z,47.67
2022-10-28T02:37:00.621Z,54.22
2022-10-28T02:38:00.614Z,45.39
2022-10-28T02:39:00.614Z,46.54
2022-10-28T02:40:00.604Z,48.68
2022-10-28T02:41:00.620Z,48.32
2022-10-28T02:42:00.590Z,55.15
2022-10-28T02:43:00.579Z,54.87
2022-10-28T02:44:00.597Z,54.71
2022-10-28T02:45:00.586Z,52.33
2022-10-28T02:46:00.551Z,52.87
2022-10-28T02:47:00.548Z,47.47
2022-10-28T02:48:00.547Z,49.08
2022-10-28T02:49:00.529Z,44.40
2022-10-28T02:50:00.566Z,48.66
2022-10-28T02:51:00.515Z,51.32
2022-10-28T02:52:00.506Z,51.76
2022-10-28T02:53:00.500Z,56.72
2022-10-28T02:54:01.531Z,46.08
2022-10-28T02:55:00.490Z,53.00
2022-10-28T02:56:00.508Z,50.30
2022-10-28T02:57:00.470Z,55.16
2022-10-28T02:58:00.467Z,51.85
2022-10-28T02:59:00.464Z,50.60
2022-10-28T03:00:00.463Z,52.73
2022-10-28T03:01:00.505Z,48.53
2022-10-28T03:02:00.544Z,50.52
2022-10-28T03:03:00.430Z,54.16
2022-10-28T03:04:00.416Z,59.29
2022-10-28T03:05:00.411Z,55.51
2022-10-28T03:06:00.426Z,55.06
2022-10-28T03:07:00.406Z,57.59
2022-10-28T03:08:00.385Z,47.24
2022-10-28T03:09:00.392Z,49.78
2022-10-28T03:10:00.375Z,51.01
2022-10-28T03:11:00.392Z,48.62
2022-10-28T03:12:00.360Z,54.58
2022-10-28T03:13:00.363Z,64.47
2022-10-28T03:14:00.344Z,52.20
2022-10-28T03:15:00.346Z,48.28
2022-10-28T03:16:00.365Z,56.28
2022-10-28T03:17:00.326Z,49.27
2022-10-28T03:18:00.312Z,54.67
2022-10-28T03:19:00.365Z,53.62
2022-10-28T03:20:00.296Z,53.36
2022-10-28T03:21:00.327Z,50.18
2022-10-28T03:22:00.283Z,60.06
2022-10-28T03:23:00.284Z,52.78
2022-10-28T03:24:00.275Z,52.99
2022-10-28T03:25:00.247Z,57.66
2022-10-28T03:26:01.280Z,59.23
2022-10-28T03:27:00.248Z,52.23
2022-10-28T03:28:00.239Z,53.61
2022-10-28T03:29:00.237Z,49.08
2022-10-28T03:30:00.229Z,48.01
2022-10-28T03:31:00.241Z,57.80
2022-10-28T03:32:00.198Z,53.67
2022-10-28T03:33:00.191Z,59.75
2022-10-28T03:34:00.181Z,53.56
2022-10-28T03:35:00.175Z,53.46
2022-10-28T03:36:00.194Z,62.22
2022-10-28T03:37:00.160Z,57.96
2022-10-28T03:38:00.154Z,56.83
2022-10-28T03:39:00.144Z,56.32
2022-10-28T03:40:00.130Z,63.76
2022-10-28T03:41:00.160Z,54.46
2022-10-28T03:42:00.123Z,52.66
2022-10-28T03:43:00.114Z,57.55
2022-10-28T03:44:00.106Z,54.65
2022-10-28T03:45:00.101Z,53.90
2022-10-28T03:46:00.121Z,49.04
2022-10-28T03:47:00.108Z,52.01
2022-10-28T03:48:00.086Z,61.83
2022-10-28T03:49:00.077Z,55.63
2022-10-28T03:50:00.068Z,53.90
2022-10-28T03:51:00.520Z,49.63
2022-10-28T03:52:00.042Z,48.31
2022-10-28T03:53:00.040Z,52.09
2022-10-28T03:54:00.036Z,48.11
2022-10-28T03:55:00.033Z,55.52
2022-10-28T03:56:00.052Z,52.57
2022-10-28T03:57:00.010Z,54.54
2022-10-28T03:58:00.008Z,53.95
2022-10-28T03:58:59.999Z,60.02
2022-10-28T03:59:59.980Z,49.11
2022-10-28T04:01:00.027Z,45.50
2022-10-28T04:02:00.115Z,51.26
2022-10-28T04:02:59.954Z,53.76
2022-10-28T04:03:59.947Z,55.38
2022-10-28T04:04:59.948Z,50.47
2022-10-28T04:05:59.972Z,53.79
2022-10-28T04:06:59.922Z,58.51
2022-10-28T04:07:59.937Z,51.97
2022-10-28T04:08:59.979Z,55.14
2022-10-28T04:09:59.972Z,61.58
2022-10-28T04:10:59.950Z,53.26
2022-10-28T04:11:59.904Z,54.33
2022-10-28T04:12:59.920Z,55.80
2022-10-28T04:13:59.896Z,55.66
2022-10-28T04:14:59.857Z,54.63
2022-10-28T04:15:59.946Z,57.28
2022-10-28T04:16:59.838Z,52.80
2022-10-28T04:17:59.827Z,56.88
2022-10-28T04:18:59.825Z,57.98
2022-10-28T04:19:59.814Z,54.94
2022-10-28T04:21:00.832Z,56.23
2022-10-28T04:21:59.810Z,60.88
2022-10-28T04:22:59.993Z,58.08
2022-10-28T04:23:59.788Z,53.66
2022-10-28T04:24:59.783Z,55.48
2022-10-28T04:25:59.800Z,55.13
2022-10-28T04:26:59.752Z,51.94
2022-10-28T04:28:00.759Z,62.15
2022-10-28T04:28:59.759Z,57.96
2022-10-28T04:29:59.748Z,58.73
2022-10-28T04:30:59.758Z,58.63
2022-10-28T04:31:59.722Z,56.80
2022-10-28T04:32:59.715Z,52.07
2022-10-28T04:33:59.709Z,55.33
2022-10-28T04:34:59.694Z,54.02
2022-10-28T04:35:59.712Z,57.71
2022-10-28T04:36:59.676Z,56.34
2022-10-28T04:37:59.677Z,60.09
2022-10-28T04:38:59.665Z,58.59
2022-10-28T04:39:59.668Z,55.90
2022-10-28T04:40:59.679Z,58.07
2022-10-28T04:41:59.647Z,59.08
2022-10-28T04:42:59.635Z,61.25
2022-10-28T04:43:59.623Z,56.13
2022-10-28T04:44:59.622Z,55.32
2022-10-28T04:45:59.645Z,57.18
2022-10-28T04:46:59.614Z,56.12
2022-10-28T04:47:59.593Z,54.36
2022-10-28T04:49:00.588Z,55.53
2022-10-28T04:49:59.605Z,57.68
2022-10-28T04:50:59.617Z,49.42
2022-10-28T04:51:59.577Z,55.57
2022-10-28T04:52:59.584Z,54.71
2022-10-28T04:53:59.554Z,57.21
2022-10-28T04:54:59.539Z,58.86
2022-10-28T04:56:00.570Z,54.01
2022-10-28T04:56:59.523Z,53.83
2022-10-28T04:57:59.533Z,57.69
2022-10-28T04:58:59.519Z,61.33
2022-10-28T04:59:59.510Z,54.76
2022-10-28T05:00:59.583Z,51.47
2022-10-28T05:01:59.622Z,54.07
2022-10-28T05:02:59.472Z,57.56
2022-10-28T05:04:03.891Z,57.95
2022-10-28T05:05:00.533Z,65.22
2022-10-28T05:05:59.577Z,58.75
2022-10-28T05:07:01.523Z,56.54
2022-10-28T05:07:59.547Z,57.46
2022-10-28T05:09:00.376Z,57.74
2022-10-28T05:10:03.943Z,55.25
2022-10-28T05:11:01.391Z,57.54
2022-10-28T05:12:01.106Z,58.31
2022-10-28T05:13:00.103Z,57.48
2022-10-28T05:14:01.450Z,54.02
2022-10-28T05:15:01.878Z,58.88
2022-10-28T05:16:02.017Z,57.96
2022-10-28T05:17:00.995Z,59.14
2022-10-28T05:18:00.892Z,59.16
2022-10-28T05:19:01.381Z,56.32
2022-10-28T05:20:00.936Z,57.91
2022-10-28T05:21:01.460Z,58.08
2022-10-28T05:22:02.936Z,57.87
2022-10-28T05:23:00.105Z,57.71
2022-10-28T05:24:00.884Z,57.77
2022-10-28T05:25:01.455Z,55.26
2022-10-28T05:26:01.387Z,53.56
2022-10-28T05:27:02.390Z,54.13
2022-10-28T05:28:03.888Z,55.72
2022-10-28T05:29:00.889Z,55.87
2022-10-28T05:30:03.386Z,53.24
2022-10-28T05:30:59.686Z,54.61
2022-10-28T05:31:59.439Z,51.84
2022-10-28T05:32:59.613Z,55.07
2022-10-28T05:34:00.924Z,59.80
2022-10-28T05:34:59.404Z,54.26
2022-10-28T05:36:02.487Z,55.70
2022-10-28T05:36:59.891Z,55.60
2022-10-28T05:37:59.918Z,55.35
2022-10-28T05:39:01.993Z,56.27
2022-10-28T05:39:59.337Z,58.10
2022-10-28T05:41:01.988Z,56.36
2022-10-28T05:42:01.995Z,54.41
2022-10-28T05:43:01.910Z,54.99
2022-10-28T05:44:01.587Z,58.12
2022-10-28T05:45:00.958Z,59.34
2022-10-28T05:46:01.407Z,61.28
2022-10-28T05:46:59.890Z,57.57
2022-10-28T05:48:01.899Z,57.32
2022-10-28T05:49:00.051Z,61.18
2022-10-28T05:49:59.344Z,56.98
2022-10-28T05:51:00.396Z,56.73
2022-10-28T05:52:00.954Z,60.86
2022-10-28T05:52:59.760Z,58.47
2022-10-28T05:54:01.010Z,54.91
2022-10-28T05:55:02.513Z,58.94
2022-10-28T05:55:59.953Z,56.95
2022-10-28T05:56:59.350Z,55.89
2022-10-28T05:58:00.477Z,55.14
2022-10-28T05:58:59.921Z,52.11
2022-10-28T05:59:59.283Z,53.58
2022-10-28T06:00:59.897Z,59.05
2022-10-28T06:02:00.493Z,55.23
2022-10-28T06:03:01.398Z,55.63
2022-10-28T06:04:01.648Z,54.12
2022-10-28T06:05:00.988Z,54.09
2022-10-28T06:05:59.974Z,54.18
2022-10-28T06:07:07.899Z,56.45
2022-10-28T06:08:03.425Z,54.12
2022-10-28T06:09:00.464Z,52.60
2022-10-28T06:10:00.498Z,54.47
2022-10-28T06:10:58.873Z,55.16
2022-10-28T06:11:59.863Z,58.80
2022-10-28T06:12:58.131Z,57.45
2022-10-28T06:13:58.368Z,57.19
2022-10-28T06:14:58.369Z,55.64
2022-10-28T06:15:58.412Z,55.33
2022-10-28T06:16:57.653Z,56.20
2022-10-28T06:17:57.587Z,57.37
2022-10-28T06:18:58.411Z,56.07
2022-10-28T06:19:58.440Z,55.76
2022-10-28T06:20:57.569Z,61.90
2022-10-28T06:21:58.540Z,56.31
2022-10-28T06:22:59.913Z,57.68
2022-10-28T06:23:58.460Z,57.17
2022-10-28T06:24:58.378Z,55.34
2022-10-28T06:27:00.493Z,55.64
2022-10-28T06:28:00.663Z,60.84
2022-10-28T06:28:58.883Z,56.33
2022-10-28T06:29:59.927Z,54.44
2022-10-28T06:30:59.888Z,56.70
2022-10-28T06:32:01.962Z,54.02
2022-10-28T06:32:58.888Z,57.53
2022-10-28T06:33:57.421Z,56.30
2022-10-28T06:35:00.902Z,57.99
2022-10-28T06:35:58.307Z,53.47
2022-10-28T06:36:58.485Z,55.93
2022-10-28T06:37:57.451Z,59.38
2022-10-28T06:38:58.008Z,54.41
2022-10-28T06:39:58.095Z,54.02
2022-10-28T06:40:58.186Z,54.32
2022-10-28T06:41:57.487Z,58.08
2022-10-28T06:42:57.338Z,52.19
2022-10-28T06:43:57.348Z,55.69
2022-10-28T06:44:59.481Z,56.97
2022-10-28T06:45:57.307Z,55.57
2022-10-28T06:47:00.418Z,55.41
2022-10-28T06:47:58.918Z,57.38
2022-10-28T06:49:01.512Z,57.82
2022-10-28T06:49:59.464Z,55.57
2022-10-28T06:50:59.678Z,55.27
2022-10-28T06:52:00.420Z,57.54
2022-10-28T06:53:01.462Z,54.19
2022-10-28T06:53:58.925Z,55.80
2022-10-28T06:55:00.527Z,57.25
2022-10-28T06:56:00.993Z,54.45
2022-10-28T06:57:02.562Z,57.25
2022-10-28T06:58:00.500Z,59.85
2022-10-28T06:58:59.933Z,56.59
2022-10-28T06:59:59.678Z,57.45
2022-10-28T07:01:00.015Z,57.02
2022-10-28T07:02:01.523Z,57.17
2022-10-28T07:03:00.242Z,56.30
2022-10-28T07:04:01.042Z,55.54
2022-10-28T07:04:59.743Z,54.42
2022-10-28T07:05:59.539Z,53.03
2022-10-28T07:07:01.527Z,54.33
2022-10-28T07:08:00.531Z,54.90
2022-10-28T07:09:00.454Z,57.53
2022-10-28T07:09:59.174Z,59.14
2022-10-28T07:10:59.676Z,59.11
2022-10-28T07:12:03.827Z,56.14
2022-10-28T07:13:00.505Z,54.32
2022-10-28T07:13:58.498Z,53.28
2022-10-28T07:14:58.498Z,53.30
2022-10-28T07:15:58.476Z,54.97
2022-10-28T07:17:01.555Z,54.07
2022-10-28T07:17:58.469Z,56.31
2022-10-28T07:18:58.455Z,57.18
2022-10-28T07:19:58.447Z,57.28
2022-10-28T07:20:58.445Z,57.53
2022-10-28T07:21:58.516Z,53.24
2022-10-28T07:22:58.427Z,54.42
2022-10-28T07:23:58.423Z,55.68
2022-10-28T07:24:58.413Z,55.61
2022-10-28T07:25:58.418Z,56.76
2022-10-28T07:26:58.442Z,54.16
2022-10-28T07:27:58.423Z,55.83
2022-10-28T07:28:58.396Z,56.96
2022-10-28T07:29:58.379Z,57.74
2022-10-28T07:30:58.475Z,53.91
2022-10-28T07:31:58.459Z,58.08
2022-10-28T07:32:58.371Z,56.92
2022-10-28T07:33:58.361Z,54.76
2022-10-28T07:34:58.380Z,52.86
2022-10-28T07:35:58.335Z,50.16
2022-10-28T07:36:58.349Z,56.94
2022-10-28T07:37:58.321Z,55.45
2022-10-28T07:38:58.358Z,54.82
2022-10-28T07:39:58.302Z,54.97
2022-10-28T07:40:58.299Z,53.22
2022-10-28T07:42:30.229Z,56.71
2022-10-28T07:42:58.274Z,58.05
2022-10-28T07:43:58.281Z,55.73
2022-10-28T07:44:58.264Z,55.20
2022-10-28T07:45:58.250Z,56.94
2022-10-28T07:46:58.538Z,54.38
2022-10-28T07:47:58.242Z,59.75
2022-10-28T07:48:58.229Z,54.09
2022-10-28T07:49:58.232Z,56.64
2022-10-28T07:50:58.228Z,56.58
2022-10-28T07:51:58.319Z,55.56
2022-10-28T07:52:58.203Z,54.31
2022-10-28T07:53:58.216Z,58.12
2022-10-28T07:54:58.185Z,55.65
2022-10-28T07:55:59.192Z,56.70
2022-10-28T07:56:58.220Z,59.52
2022-10-28T07:57:58.182Z,61.57
2022-10-28T07:58:58.150Z,59.34
2022-10-28T07:59:58.160Z,58.51
2022-10-28T08:00:58.164Z,58.29
2022-10-28T08:01:58.261Z,59.06
2022-10-28T08:02:58.154Z,58.75
2022-10-28T08:03:58.107Z,57.58
2022-10-28T08:04:58.097Z,52.67
2022-10-28T08:05:59.644Z,54.11
2022-10-28T08:06:59.089Z,56.99
2022-10-28T08:07:58.084Z,55.23
2022-10-28T08:08:58.065Z,54.15
2022-10-28T08:09:58.036Z,56.72
2022-10-28T08:10:58.039Z,53.93
2022-10-28T08:11:58.019Z,53.42
2022-10-28T08:12:58.041Z,53.51
2022-10-28T08:13:58.015Z,53.19
2022-10-28T08:14:57.996Z,55.77
2022-10-28T08:15:57.991Z,52.25
2022-10-28T08:16:57.992Z,54.28
2022-10-28T08:17:57.990Z,59.13
2022-10-28T08:18:57.959Z,56.92
2022-10-28T08:19:57.997Z,54.71
2022-10-28T08:20:57.987Z,54.19
2022-10-28T08:21:57.931Z,57.13
2022-10-28T08:22:57.947Z,59.06
2022-10-28T08:23:57.914Z,54.50
2022-10-28T08:24:57.911Z,52.41
2022-10-28T08:25:57.898Z,54.99
2022-10-28T08:26:57.937Z,54.98
2022-10-28T08:27:57.909Z,53.94
2022-10-28T08:28:57.882Z,60.10
2022-10-28T08:29:57.869Z,56.25
2022-10-28T08:31:08.254Z,55.09
2022-10-28T08:31:58.846Z,52.82
2022-10-28T08:32:57.868Z,57.07
2022-10-28T08:33:58.839Z,56.97
2022-10-28T08:34:57.835Z,51.86
2022-10-28T08:35:57.819Z,55.77
2022-10-28T08:36:58.062Z,54.50
2022-10-28T08:37:57.830Z,55.81
2022-10-28T08:38:57.818Z,55.15
2022-10-28T08:39:57.782Z,51.75
2022-10-28T08:40:57.808Z,57.32
2022-10-28T08:41:57.773Z,58.84
2022-10-28T08:42:57.804Z,57.56
2022-10-28T08:43:58.148Z,55.91
2022-10-28T08:44:58.747Z,55.11
2022-10-28T08:45:57.776Z,59.04
2022-10-28T08:46:57.738Z,55.34
2022-10-28T08:47:58.205Z,54.04
2022-10-28T08:48:57.727Z,57.60
2022-10-28T08:49:57.721Z,54.52
2022-10-28T08:50:57.716Z,57.25
2022-10-28T08:51:57.703Z,54.44
2022-10-28T08:52:57.828Z,55.36
2022-10-28T08:53:57.693Z,53.99
2022-10-28T08:54:57.676Z,57.20
2022-10-28T08:55:57.676Z,56.58
2022-10-28T08:56:57.694Z,55.01
2022-10-28T08:57:57.682Z,56.16
2022-10-28T08:58:57.652Z,55.25
2022-10-28T08:59:57.654Z,53.07
2022-10-28T09:00:57.686Z,51.79
2022-10-28T09:01:57.641Z,53.72
2022-10-28T09:02:57.982Z,51.80
2022-10-28T09:03:57.611Z,51.65
2022-10-28T09:04:57.605Z,53.08
2022-10-28T09:05:57.598Z,54.13
2022-10-28T09:06:57.582Z,53.38
2022-10-28T09:07:57.604Z,56.66
2022-10-28T09:08:57.573Z,54.79
2022-10-28T09:09:57.563Z,55.75
2022-10-28T09:10:57.559Z,53.23
2022-10-28T09:11:57.564Z,55.30
2022-10-28T09:12:57.575Z,55.55
2022-10-28T09:13:57.542Z,55.26
2022-10-28T09:14:57.536Z,53.26
2022-10-28T09:15:57.523Z,55.69
2022-10-28T09:16:57.513Z,54.49
2022-10-28T09:17:57.824Z,53.12
2022-10-28T09:18:57.508Z,57.23
2022-10-28T09:19:57.495Z,56.36
2022-10-28T09:20:57.492Z,55.72
2022-10-28T09:21:57.480Z,54.90
2022-10-28T09:22:57.780Z,56.71
2022-10-28T09:23:57.474Z,55.24
2022-10-28T09:24:57.452Z,54.57
2022-10-28T09:25:57.451Z,55.15
2022-10-28T09:26:57.439Z,54.26
2022-10-28T09:27:57.628Z,53.76
2022-10-28T09:28:57.531Z,55.19
2022-10-28T09:29:57.422Z,51.41
2022-10-28T09:30:57.409Z,54.92
2022-10-28T09:31:57.400Z,53.32
2022-10-28T09:32:57.967Z,55.34
2022-10-28T09:33:57.384Z,55.09
2022-10-28T09:34:57.377Z,51.25
2022-10-28T09:35:57.387Z,55.89
2022-10-28T09:36:57.365Z,51.57
2022-10-28T09:37:57.379Z,60.31
2022-10-28T09:38:57.347Z,57.44
2022-10-28T09:39:57.349Z,56.74
2022-10-28T09:40:57.327Z,54.20
2022-10-28T09:41:57.345Z,53.22
2022-10-28T09:42:57.319Z,50.11
2022-10-28T09:43:57.334Z,55.55
2022-10-28T09:44:57.298Z,53.93
2022-10-28T09:45:57.299Z,54.46
2022-10-28T09:46:57.295Z,53.09
2022-10-28T09:47:57.489Z,58.18
2022-10-28T09:48:57.307Z,56.67
2022-10-28T09:49:57.273Z,55.44
2022-10-28T09:50:57.258Z,57.01
2022-10-28T09:51:57.267Z,55.11
2022-10-28T09:52:57.247Z,50.37
2022-10-28T09:53:57.272Z,54.94
2022-10-28T09:54:57.262Z,57.35
2022-10-28T09:55:57.294Z,57.15
2022-10-28T09:56:57.206Z,55.03
2022-10-28T09:57:58.244Z,53.94
2022-10-28T09:58:57.219Z,52.94
2022-10-28T09:59:57.191Z,55.46
2022-10-28T10:00:57.175Z,56.94
2022-10-28T10:01:58.529Z,58.75
2022-10-28T10:02:57.193Z,56.47
2022-10-28T10:03:57.183Z,53.67
2022-10-28T10:04:57.148Z,56.12
2022-10-28T10:05:57.191Z,60.23
2022-10-28T10:06:57.144Z,55.48
2022-10-28T10:07:57.412Z,54.76
2022-10-28T10:08:57.161Z,56.16
2022-10-28T10:09:57.151Z,56.51
2022-10-28T10:10:57.110Z,55.17
2022-10-28T10:11:57.092Z,56.01
2022-10-28T10:12:57.439Z,56.29
2022-10-28T10:13:57.116Z,56.07
2022-10-28T10:14:57.071Z,56.63
2022-10-28T10:15:57.061Z,55.54
2022-10-28T10:16:57.051Z,55.83
2022-10-28T10:17:57.043Z,60.06
2022-10-28T10:18:57.062Z,56.49
2022-10-28T10:19:57.051Z,53.04
2022-10-28T10:20:57.024Z,55.90
2022-10-28T10:21:57.015Z,57.79
2022-10-28T10:22:57.315Z,57.12
2022-10-28T10:23:57.121Z,54.25
2022-10-28T10:24:56.995Z,55.75
2022-10-28T10:25:56.983Z,57.57
2022-10-28T10:26:56.981Z,58.28
2022-10-28T10:27:57.147Z,56.88
2022-10-28T10:28:56.985Z,56.40
2022-10-28T10:29:56.955Z,55.55
2022-10-28T10:30:56.945Z,59.49
2022-10-28T10:31:56.942Z,57.10
2022-10-28T10:32:56.933Z,53.73
2022-10-28T10:33:56.967Z,56.85
2022-10-28T10:34:56.963Z,57.95
2022-10-28T10:36:00.024Z,55.51
2022-10-28T10:36:58.011Z,51.54
2022-10-28T10:37:57.145Z,56.51
2022-10-28T10:38:56.912Z,56.38
2022-10-28T10:39:56.878Z,54.65
2022-10-28T10:40:56.869Z,58.06
2022-10-28T10:41:56.866Z,49.65
2022-10-28T10:43:12.999Z,54.53
2022-10-28T10:43:58.941Z,56.12
2022-10-28T10:44:56.860Z,61.63
2022-10-28T10:45:56.843Z,56.42
2022-10-28T10:46:57.550Z,55.80
2022-10-28T10:47:56.964Z,57.29
2022-10-28T10:48:56.808Z,52.47
2022-10-28T10:49:56.807Z,55.19
2022-10-28T10:50:56.792Z,55.75
2022-10-28T10:51:56.794Z,52.83
2022-10-28T10:52:57.286Z,52.97
2022-10-28T10:53:56.774Z,52.86
2022-10-28T10:54:56.848Z,53.48
2022-10-28T10:55:56.764Z,54.28
2022-10-28T10:57:57.282Z,53.90
2022-10-28T10:58:56.725Z,51.18
2022-10-28T10:59:56.726Z,53.56
2022-10-28T11:00:56.719Z,55.43
2022-10-28T11:01:56.823Z,55.59
2022-10-28T11:02:56.773Z,55.92
2022-10-28T11:04:56.756Z,54.50
2022-10-28T11:06:18.243Z,55.60
2022-10-28T11:06:58.666Z,51.03
2022-10-28T11:07:56.909Z,57.16
2022-10-28T11:08:56.667Z,55.13
2022-10-28T11:09:56.644Z,55.74
2022-10-28T11:10:56.635Z,56.90
2022-10-28T11:11:56.628Z,57.04
2022-10-28T11:12:56.932Z,56.86
2022-10-28T11:13:56.617Z,54.14
2022-10-28T11:14:56.677Z,52.84
2022-10-28T11:15:56.602Z,52.85
2022-10-28T11:16:56.591Z,57.39
2022-10-28T11:17:56.919Z,56.92
2022-10-28T11:18:56.596Z,57.94
2022-10-28T11:19:56.562Z,54.35
2022-10-28T11:20:56.558Z,53.49
2022-10-28T11:21:56.549Z,56.17
2022-10-28T11:22:57.042Z,52.01
2022-10-28T11:23:56.559Z,54.14
2022-10-28T11:24:56.592Z,56.36
2022-10-28T11:25:56.523Z,57.61
2022-10-28T11:26:56.518Z,59.81
2022-10-28T11:27:57.715Z,56.20
2022-10-28T11:28:56.523Z,53.36
2022-10-28T11:29:56.482Z,53.29
2022-10-28T11:30:56.575Z,54.46
2022-10-28T11:31:56.469Z,54.28
2022-10-28T11:33:07.967Z,54.22
2022-10-28T11:33:57.483Z,53.24
2022-10-28T11:34:56.456Z,57.69
2022-10-28T11:35:56.463Z,56.10
2022-10-28T11:36:56.437Z,52.18
2022-10-28T11:37:56.429Z,53.22
2022-10-28T11:38:56.460Z,55.43
2022-10-28T11:39:56.421Z,50.61
2022-10-28T11:40:56.403Z,56.43
2022-10-28T11:41:56.399Z,55.12
2022-10-28T11:42:56.856Z,54.14
2022-10-28T11:43:59.637Z,53.37
2022-10-28T11:44:58.365Z,54.36
2022-10-28T11:45:56.357Z,56.13
2022-10-28T11:47:00.881Z,57.04
2022-10-28T11:47:57.622Z,57.42
2022-10-28T11:48:56.367Z,54.59
2022-10-28T11:49:56.345Z,55.25
2022-10-28T11:50:56.329Z,56.69
2022-10-28T11:51:56.318Z,56.34
2022-10-28T11:52:56.314Z,56.27
2022-10-28T11:53:56.331Z,57.41
2022-10-28T11:54:56.291Z,57.36
2022-10-28T11:55:56.300Z,54.65
2022-10-28T11:56:56.292Z,55.16
2022-10-28T11:57:56.829Z,55.45
2022-10-28T11:58:56.292Z,53.60
2022-10-28T11:59:56.263Z,55.76
2022-10-28T12:00:56.249Z,56.10
2022-10-28T12:01:56.417Z,52.55
2022-10-28T12:02:56.869Z,52.01
2022-10-28T12:03:56.254Z,56.66
2022-10-28T12:04:56.225Z,54.44
2022-10-28T12:05:56.219Z,56.58
2022-10-28T12:06:56.208Z,50.97
2022-10-28T12:07:56.195Z,51.45
2022-10-28T12:08:56.276Z,53.85
2022-10-28T12:09:56.184Z,55.27
2022-10-28T12:10:56.178Z,53.19
2022-10-28T12:11:56.221Z,55.74
2022-10-28T12:12:56.365Z,56.87
2022-10-28T12:13:56.217Z,54.91
2022-10-28T12:14:56.147Z,55.96
2022-10-28T12:15:56.138Z,51.67
2022-10-28T12:16:56.142Z,55.56
2022-10-28T12:17:56.332Z,56.71
2022-10-28T12:18:56.192Z,55.97
2022-10-28T12:19:56.114Z,55.38
2022-10-28T12:20:56.111Z,57.22
2022-10-28T12:21:56.101Z,56.30
2022-10-28T12:22:56.568Z,57.18
2022-10-28T12:23:57.105Z,55.47
2022-10-28T12:24:56.105Z,54.76
2022-10-28T12:25:56.076Z,54.71
2022-10-28T12:26:56.060Z,61.58
2022-10-28T12:27:56.049Z,54.58
2022-10-28T12:28:56.065Z,54.31
2022-10-28T12:29:56.046Z,55.51
2022-10-28T12:30:56.029Z,55.35
2022-10-28T12:31:56.035Z,55.35
2022-10-28T12:32:56.474Z,57.64
2022-10-28T12:33:56.036Z,54.65
2022-10-28T12:34:56.005Z,49.90
2022-10-28T12:35:55.998Z,55.24
2022-10-28T12:36:55.987Z,58.45
2022-10-28T12:37:56.447Z,56.96
2022-10-28T12:38:55.995Z,59.51
2022-10-28T12:39:55.967Z,55.89
2022-10-28T12:40:55.966Z,54.29
2022-10-28T12:41:55.946Z,55.08
2022-10-28T12:42:56.428Z,54.94
2022-10-28T12:43:55.977Z,55.82
2022-10-28T12:44:55.921Z,59.92
2022-10-28T12:45:55.924Z,56.62
2022-10-28T12:46:55.917Z,58.53
2022-10-28T12:47:56.187Z,54.94
2022-10-28T12:48:55.937Z,56.46
2022-10-28T12:49:55.896Z,54.54
2022-10-28T12:50:55.883Z,58.15
2022-10-28T12:51:56.045Z,56.18
2022-10-28T12:52:55.865Z,56.11
2022-10-28T12:53:55.870Z,51.91
2022-10-28T12:54:55.948Z,55.03
2022-10-28T12:55:55.878Z,55.94